Shelton, CT

6:03 AM EST on January 30, 2015 (GMT -0500)
Danbury Municipal | Change Station
CLOSE
Current Station
Airport
Location: Danbury,
Elevation: 456 ft
Nearby Weather Stations

Elev 456 ft 41.37 °N, 73.48 °W | Updated 10 minutes ago

Overcast
Overcast
31 °F
Feels Like 31 °F
N
0
Wind Variable Wind from North

Today
High -- | Low -- °F
--% Chance of Precip.
Yesterday
High -- | Low -- °F
Precip. -- in
7:05 AM 5:06 PM
Waxing Gibbous, 82% visible
Pressure 29.85 in
Visibility 5.0 miles
Clouds Mostly Cloudy 900 ft
Overcast 3000 ft
Dew Point 26 °F
Humidity 82%
Rainfall 0.05 in
Snow Depth Not available.
UV 0 out of 12
Pollen .10 out of 12
Air Quality Not available.
Flu Activity Not available.
METAR KDXR 301053Z AUTO 00000KT 5SM -SN BKN009 OVC030 M01/M03 A2984 RMK AO2 SNB02E13B41 SLP107 P0000 T10061033

More Conditions Fewer Conditions

Pressure 29.85 in
Visibility 5.0 miles
Clouds Mostly Cloudy 900 ft
Overcast 3000 ft
Dew Point 26 °F
Humidity 82%
Rainfall 0.05 in
Snow Depth Not available.
UV 0 out of 12
Pollen .10 out of 12
Air Quality Not available.
Flu Activity Not available.
METAR KDXR 301053Z AUTO 00000KT 5SM -SN BKN009 OVC030 M01/M03 A2984 RMK AO2 SNB02E13B41 SLP107 P0000 T10061033

More Conditions Fewer Conditions

10-Day Weather Forecast

Almanac

Astronomy

Jan. 30, 2015 Rise Set
Actual Time
Civil Twilight
Nautical Twilight
Astronomical Twilight
Moon
Length of Visible Light
Length of Day
Tomorrow will be .
, % of the Moon is Illuminated

Today's Extremes

State Highs State Lows

Community

WunderPhotos

Upload Photos

1,791,736 photos uploaded!

WunderBlogs® & News

Nearby

Air Quality

  Air Quality AQ Index Pollutant
Not available.

Snow Depth

Station Depth Elevation

Earthquake Activity

City Distance Mag. Time & Date
Minimum magnitude displayed is 2.5.

Coastal Water Temperatures

Place Temperature

Nearby Weather Stations